sensor_id;sensor_type;location;lat;lon;timestamp;pressure;altitude;pressure_sealevel;temperature;humidity
13011;BME280;6786;57.632;11.962;2022-09-02T00:00:10;101780.00;;;22.21;52.99
13011;BME280;6786;57.632;11.962;2022-09-02T00:02:39;101789.66;;;22.24;53.09
13011;BME280;6786;57.632;11.962;2022-09-02T00:05:08;101778.00;;;22.23;53.30
13011;BME280;6786;57.632;11.962;2022-09-02T00:07:36;101784.53;;;22.21;52.85
13011;BME280;6786;57.632;11.962;2022-09-02T00:10:04;101780.00;;;22.21;53.08
13011;BME280;6786;57.632;11.962;2022-09-02T00:12:32;101788.78;;;22.23;53.16
13011;BME280;6786;57.632;11.962;2022-09-02T00:15:02;101787.97;;;22.23;52.89
13011;BME280;6786;57.632;11.962;2022-09-02T00:17:31;101787.09;;;22.22;53.18
13011;BME280;6786;57.632;11.962;2022-09-02T00:19:59;101789.91;;;22.21;53.13
13011;BME280;6786;57.632;11.962;2022-09-02T00:22:27;101789.78;;;22.22;53.16
13011;BME280;6786;57.632;11.962;2022-09-02T00:24:55;101781.22;;;22.17;53.21
13011;BME280;6786;57.632;11.962;2022-09-02T00:27:23;101781.63;;;22.13;52.89
13011;BME280;6786;57.632;11.962;2022-09-02T00:29:52;101786.47;;;22.19;52.88
13011;BME280;6786;57.632;11.962;2022-09-02T00:32:21;101791.88;;;22.19;52.95
13011;BME280;6786;57.632;11.962;2022-09-02T00:34:49;101786.47;;;22.19;53.31
13011;BME280;6786;57.632;11.962;2022-09-02T00:37:17;101784.53;;;22.21;53.27
13011;BME280;6786;57.632;11.962;2022-09-02T00:39:46;101786.47;;;22.19;52.89
13011;BME280;6786;57.632;11.962;2022-09-02T00:42:14;101789.91;;;22.21;52.99
13011;BME280;6786;57.632;11.962;2022-09-02T00:44:42;101790.16;;;22.18;52.96
13011;BME280;6786;57.632;11.962;2022-09-02T00:47:10;101785.78;;;22.17;52.94
13011;BME280;6786;57.632;11.962;2022-09-02T00:49:41;101786.75;;;22.16;52.92
13011;BME280;6786;57.632;11.962;2022-09-02T00:52:14;101783.09;;;22.17;53.13
13011;BME280;6786;57.632;11.962;2022-09-02T00:54:48;101784.78;;;22.18;53.09
13011;BME280;6786;57.632;11.962;2022-09-02T00:57:19;101788.22;;;22.20;53.17
13011;BME280;6786;57.632;11.962;2022-09-02T00:59:58;101786.47;;;22.19;53.03
13011;BME280;6786;57.632;11.962;2022-09-02T01:02:28;101791.03;;;22.18;52.72
13011;BME280;6786;57.632;11.962;2022-09-02T01:04:59;101790.16;;;22.18;52.89
13011;BME280;6786;57.632;11.962;2022-09-02T01:07:32;101786.47;;;22.19;53.04
13011;BME280;6786;57.632;11.962;2022-09-02T01:10:02;101791.88;;;22.19;52.66
13011;BME280;6786;57.632;11.962;2022-09-02T01:12:31;101778.91;;;22.13;53.09
13011;BME280;6786;57.632;11.962;2022-09-02T01:15:00;101786.47;;;22.19;52.95
13011;BME280;6786;57.632;11.962;2022-09-02T01:17:28;101789.19;;;22.19;52.73
13011;BME280;6786;57.632;11.962;2022-09-02T01:20:05;101787.34;;;22.19;52.91
13011;BME280;6786;57.632;11.962;2022-09-02T01:22:40;101773.28;;;22.16;52.89
13011;BME280;6786;57.632;11.962;2022-09-02T01:25:11;101763.75;;;22.12;52.84
13011;BME280;6786;57.632;11.962;2022-09-02T01:27:41;101774.00;;;22.18;52.79
13011;BME280;6786;57.632;11.962;2022-09-02T01:30:13;101764.09;;;22.18;53.07
13011;BME280;6786;57.632;11.962;2022-09-02T01:32:41;101765.19;;;22.16;52.67
13011;BME280;6786;57.632;11.962;2022-09-02T01:35:09;101768.63;;;22.18;52.65
13011;BME280;6786;57.632;11.962;2022-09-02T01:37:39;101776.56;;;22.19;52.76
13011;BME280;6786;57.632;11.962;2022-09-02T01:40:21;101766.19;;;22.15;52.91
13011;BME280;6786;57.632;11.962;2022-09-02T01:42:53;101769.63;;;22.17;52.77
13011;BME280;6786;57.632;11.962;2022-09-02T01:45:22;101772.31;;;22.17;52.53
13011;BME280;6786;57.632;11.962;2022-09-02T01:47:50;101770.59;;;22.16;52.87
13011;BME280;6786;57.632;11.962;2022-09-02T01:50:18;101769.63;;;22.17;52.98
13011;BME280;6786;57.632;11.962;2022-09-02T01:52:48;101766.94;;;22.17;52.62
13011;BME280;6786;57.632;11.962;2022-09-02T01:55:16;101774.00;;;22.18;52.57
13011;BME280;6786;57.632;11.962;2022-09-02T01:57:44;101768.63;;;22.18;52.42
13011;BME280;6786;57.632;11.962;2022-09-02T02:00:14;101772.31;;;22.17;52.50
13011;BME280;6786;57.632;11.962;2022-09-02T02:02:42;101772.31;;;22.17;52.91
13011;BME280;6786;57.632;11.962;2022-09-02T02:05:10;101769.63;;;22.17;52.47
13011;BME280;6786;57.632;11.962;2022-09-02T02:07:40;101768.63;;;22.18;52.72
13011;BME280;6786;57.632;11.962;2022-09-02T02:10:11;101777.69;;;22.17;52.67
13011;BME280;6786;57.632;11.962;2022-09-02T02:12:39;101781.34;;;22.16;52.74
13011;BME280;6786;57.632;11.962;2022-09-02T02:15:10;101774.00;;;22.18;52.54
13011;BME280;6786;57.632;11.962;2022-09-02T02:17:38;101772.31;;;22.17;52.83
13011;BME280;6786;57.632;11.962;2022-09-02T02:20:08;101777.69;;;22.17;52.41
13011;BME280;6786;57.632;11.962;2022-09-02T02:22:37;101780.41;;;22.17;52.62
13011;BME280;6786;57.632;11.962;2022-09-02T02:25:06;101776.69;;;22.18;52.35
13011;BME280;6786;57.632;11.962;2022-09-02T02:27:36;101777.69;;;22.17;52.60
13011;BME280;6786;57.632;11.962;2022-09-02T02:30:05;101779.41;;;22.18;52.51
13011;BME280;6786;57.632;11.962;2022-09-02T02:32:33;101770.31;;;22.19;52.32
13011;BME280;6786;57.632;11.962;2022-09-02T02:35:02;101774.00;;;22.18;52.27
13011;BME280;6786;57.632;11.962;2022-09-02T02:37:30;101773.16;;;22.17;52.47
13011;BME280;6786;57.632;11.962;2022-09-02T02:39:58;101768.63;;;22.18;52.49
13011;BME280;6786;57.632;11.962;2022-09-02T02:42:26;101779.41;;;22.18;52.56
13011;BME280;6786;57.632;11.962;2022-09-02T02:44:56;101775.56;;;22.20;52.42
13011;BME280;6786;57.632;11.962;2022-09-02T02:47:24;101768.63;;;22.18;52.57
13011;BME280;6786;57.632;11.962;2022-09-02T02:49:52;101778.28;;;22.20;52.54
13011;BME280;6786;57.632;11.962;2022-09-02T02:52:20;101788.22;;;22.20;52.23
13011;BME280;6786;57.632;11.962;2022-09-02T02:54:48;101784.53;;;22.21;52.19
13011;BME280;6786;57.632;11.962;2022-09-02T02:57:16;101779.41;;;22.18;52.33
13011;BME280;6786;57.632;11.962;2022-09-02T02:59:44;101786.47;;;22.19;52.34
13011;BME280;6786;57.632;11.962;2022-09-02T03:02:14;101782.09;;;22.18;52.45
13011;BME280;6786;57.632;11.962;2022-09-02T03:04:42;101783.09;;;22.17;52.46
13011;BME280;6786;57.632;11.962;2022-09-02T03:07:10;101782.97;;;22.18;52.39
13011;BME280;6786;57.632;11.962;2022-09-02T03:09:38;101788.47;;;22.17;52.04
13011;BME280;6786;57.632;11.962;2022-09-02T03:12:08;101788.47;;;22.17;52.19
13011;BME280;6786;57.632;11.962;2022-09-02T03:14:36;101786.75;;;22.16;52.19
13011;BME280;6786;57.632;11.962;2022-09-02T03:17:05;101783.09;;;22.17;52.05
13011;BME280;6786;57.632;11.962;2022-09-02T03:19:34;101788.47;;;22.17;52.39
13011;BME280;6786;57.632;11.962;2022-09-02T03:22:03;101781.34;;;22.16;52.55
13011;BME280;6786;57.632;11.962;2022-09-02T03:24:31;101785.91;;;22.15;52.03
13011;BME280;6786;57.632;11.962;2022-09-02T03:26:59;101793.00;;;22.16;52.40
13011;BME280;6786;57.632;11.962;2022-09-02T03:29:27;101788.47;;;22.17;52.37
13011;BME280;6786;57.632;11.962;2022-09-02T03:31:55;101788.47;;;22.17;52.33
13011;BME280;6786;57.632;11.962;2022-09-02T03:34:24;101791.16;;;22.17;52.49
13011;BME280;6786;57.632;11.962;2022-09-02T03:36:56;101788.47;;;22.17;52.36
13011;BME280;6786;57.632;11.962;2022-09-02T03:39:24;101793.84;;;22.17;51.98
13011;BME280;6786;57.632;11.962;2022-09-02T03:41:52;101784.19;;;22.14;52.41
13011;BME280;6786;57.632;11.962;2022-09-02T03:44:20;101791.16;;;22.17;51.98
13011;BME280;6786;57.632;11.962;2022-09-02T03:46:48;101791.16;;;22.17;52.00
13011;BME280;6786;57.632;11.962;2022-09-02T03:49:16;101791.16;;;22.17;52.36
13011;BME280;6786;57.632;11.962;2022-09-02T03:51:44;101786.63;;;22.17;52.01
13011;BME280;6786;57.632;11.962;2022-09-02T03:54:14;101793.00;;;22.16;51.86
13011;BME280;6786;57.632;11.962;2022-09-02T03:56:42;101788.47;;;22.17;51.83
13011;BME280;6786;57.632;11.962;2022-09-02T03:59:11;101786.75;;;22.16;51.86
13011;BME280;6786;57.632;11.962;2022-09-02T04:01:39;101786.75;;;22.16;52.15
13011;BME280;6786;57.632;11.962;2022-09-02T04:04:07;101789.44;;;22.16;51.96
13011;BME280;6786;57.632;11.962;2022-09-02T04:06:36;101795.69;;;22.16;52.19
13011;BME280;6786;57.632;11.962;2022-09-02T04:09:04;101786.75;;;22.16;52.08
13011;BME280;6786;57.632;11.962;2022-09-02T04:11:33;101788.47;;;22.17;52.04
13011;BME280;6786;57.632;11.962;2022-09-02T04:14:02;101788.47;;;22.17;51.97
13011;BME280;6786;57.632;11.962;2022-09-02T04:16:30;101792.13;;;22.16;51.84
13011;BME280;6786;57.632;11.962;2022-09-02T04:19:01;101780.19;;;22.09;52.12
13011;BME280;6786;57.632;11.962;2022-09-02T04:21:32;101796.56;;;22.17;51.78
13011;BME280;6786;57.632;11.962;2022-09-02T04:24:00;101799.25;;;22.17;52.19
13011;BME280;6786;57.632;11.962;2022-09-02T04:26:28;101799.25;;;22.17;52.10
13011;BME280;6786;57.632;11.962;2022-09-02T04:28:58;101799.25;;;22.17;51.87
13011;BME280;6786;57.632;11.962;2022-09-02T04:31:28;101795.56;;;22.18;52.07
13011;BME280;6786;57.632;11.962;2022-09-02T04:33:58;101797.25;;;22.19;51.74
13011;BME280;6786;57.632;11.962;2022-09-02T04:36:27;101791.03;;;22.18;51.70
13011;BME280;6786;57.632;11.962;2022-09-02T04:38:57;101791.88;;;22.19;51.82
13011;BME280;6786;57.632;11.962;2022-09-02T04:41:28;101799.94;;;22.19;51.87
13011;BME280;6786;57.632;11.962;2022-09-02T04:43:58;101802.63;;;22.19;51.61
13011;BME280;6786;57.632;11.962;2022-09-02T04:46:27;101790.16;;;22.18;51.73
13011;BME280;6786;57.632;11.962;2022-09-02T04:49:00;101798.97;;;22.20;51.99
13011;BME280;6786;57.632;11.962;2022-09-02T04:51:29;101797.38;;;22.17;51.76
13011;BME280;6786;57.632;11.962;2022-09-02T04:53:57;101797.38;;;22.17;51.59
13011;BME280;6786;57.632;11.962;2022-09-02T04:56:27;101801.94;;;22.17;51.85
13011;BME280;6786;57.632;11.962;2022-09-02T04:58:58;101804.63;;;22.17;51.95
13011;BME280;6786;57.632;11.962;2022-09-02T05:01:28;101793.25;;;22.13;51.74
13011;BME280;6786;57.632;11.962;2022-09-02T05:03:58;101787.00;;;22.13;51.97
13011;BME280;6786;57.632;11.962;2022-09-02T05:06:28;101803.25;;;22.22;51.73
13011;BME280;6786;57.632;11.962;2022-09-02T05:08:58;101803.84;;;22.26;51.92
13011;BME280;6786;57.632;11.962;2022-09-02T05:11:29;101801.88;;;22.28;51.74
13011;BME280;6786;57.632;11.962;2022-09-02T05:14:02;101803.59;;;22.29;52.01
13011;BME280;6786;57.632;11.962;2022-09-02T05:16:34;101798.22;;;22.29;52.06
13011;BME280;6786;57.632;11.962;2022-09-02T05:19:05;101766.94;;;22.17;51.93
13011;BME280;6786;57.632;11.962;2022-09-02T05:21:38;101796.22;;;22.31;51.89
13011;BME280;6786;57.632;11.962;2022-09-02T05:24:07;101795.97;;;22.34;52.14
13011;BME280;6786;57.632;11.962;2022-09-02T05:26:35;101795.81;;;22.35;52.13
13011;BME280;6786;57.632;11.962;2022-09-02T05:29:05;101792.31;;;22.35;51.77
13011;BME280;6786;57.632;11.962;2022-09-02T05:31:34;101798.38;;;22.37;52.26
13011;BME280;6786;57.632;11.962;2022-09-02T05:34:02;101794.72;;;22.38;51.99
13011;BME280;6786;57.632;11.962;2022-09-02T05:36:30;101784.09;;;22.36;52.30
13011;BME280;6786;57.632;11.962;2022-09-02T05:38:59;101790.03;;;22.40;51.99
13011;BME280;6786;57.632;11.962;2022-09-02T05:41:28;101792.63;;;22.41;52.19
13011;BME280;6786;57.632;11.962;2022-09-02T05:43:58;101780.97;;;22.41;51.88
13011;BME280;6786;57.632;11.962;2022-09-02T05:46:31;101795.19;;;22.43;51.87
13011;BME280;6786;57.632;11.962;2022-09-02T05:49:00;101754.16;;;22.19;51.87
13011;BME280;6786;57.632;11.962;2022-09-02T05:51:40;101787.22;;;22.41;51.62
13011;BME280;6786;57.632;11.962;2022-09-02T05:54:10;101791.47;;;22.44;51.88
13011;BME280;6786;57.632;11.962;2022-09-02T05:56:40;101795.91;;;22.45;52.10
13011;BME280;6786;57.632;11.962;2022-09-02T05:59:11;101793.34;;;22.43;51.98
13011;BME280;6786;57.632;11.962;2022-09-02T06:01:41;101803.00;;;22.46;51.99
13011;BME280;6786;57.632;11.962;2022-09-02T06:04:09;101798.59;;;22.45;51.94
13011;BME280;6786;57.632;11.962;2022-09-02T06:06:37;101798.59;;;22.45;51.53
13011;BME280;6786;57.632;11.962;2022-09-02T06:09:07;101809.38;;;22.45;51.59
13011;BME280;6786;57.632;11.962;2022-09-02T06:11:37;101802.25;;;22.44;52.00
13011;BME280;6786;57.632;11.962;2022-09-02T06:14:06;101801.28;;;22.45;51.82
13011;BME280;6786;57.632;11.962;2022-09-02T06:16:34;101811.09;;;22.46;51.65
13011;BME280;6786;57.632;11.962;2022-09-02T06:19:04;101812.06;;;22.45;51.74
13011;BME280;6786;57.632;11.962;2022-09-02T06:21:33;101814.78;;;22.45;51.50
13011;BME280;6786;57.632;11.962;2022-09-02T06:24:03;101813.78;;;22.46;51.82
13011;BME280;6786;57.632;11.962;2022-09-02T06:26:32;101777.63;;;22.28;51.51
13011;BME280;6786;57.632;11.962;2022-09-02T06:29:00;101818.16;;;22.47;51.42
13011;BME280;6786;57.632;11.962;2022-09-02T06:31:28;101819.91;;;22.48;51.55
13011;BME280;6786;57.632;11.962;2022-09-02T06:34:00;101828.94;;;22.47;51.82
13011;BME280;6786;57.632;11.962;2022-09-02T06:36:31;101826.97;;;22.49;51.68
13011;BME280;6786;57.632;11.962;2022-09-02T06:39:00;101835.19;;;22.47;51.74
13011;BME280;6786;57.632;11.962;2022-09-02T06:41:31;101830.66;;;22.48;51.60
13011;BME280;6786;57.632;11.962;2022-09-02T06:44:02;101825.28;;;22.48;51.51
13011;BME280;6786;57.632;11.962;2022-09-02T06:46:35;101831.63;;;22.47;51.85
13011;BME280;6786;57.632;11.962;2022-09-02T06:49:05;101828.94;;;22.47;51.48
13011;BME280;6786;57.632;11.962;2022-09-02T06:51:36;101836.06;;;22.48;51.70
13011;BME280;6786;57.632;11.962;2022-09-02T06:54:07;101840.44;;;22.49;51.54
13011;BME280;6786;57.632;11.962;2022-09-02T06:56:39;101844.16;;;22.48;51.62
13011;BME280;6786;57.632;11.962;2022-09-02T06:59:15;101841.44;;;22.48;51.43
13011;BME280;6786;57.632;11.962;2022-09-02T07:01:43;101837.88;;;22.47;51.56
13011;BME280;6786;57.632;11.962;2022-09-02T07:04:12;101837.03;;;22.47;51.59
13011;BME280;6786;57.632;11.962;2022-09-02T07:06:59;101835.19;;;22.47;51.54
13011;BME280;6786;57.632;11.962;2022-09-02T07:09:27;101828.94;;;22.47;51.52
13011;BME280;6786;57.632;11.962;2022-09-02T07:11:58;101835.19;;;22.47;51.40
13011;BME280;6786;57.632;11.962;2022-09-02T07:14:30;101828.94;;;22.47;51.61
13011;BME280;6786;57.632;11.962;2022-09-02T07:16:59;101830.66;;;22.48;51.55
13011;BME280;6786;57.632;11.962;2022-09-02T07:19:27;101830.66;;;22.48;51.72
13011;BME280;6786;57.632;11.962;2022-09-02T07:21:55;101830.66;;;22.48;51.61
13011;BME280;6786;57.632;11.962;2022-09-02T07:24:24;101831.41;;;22.50;51.61
13011;BME280;6786;57.632;11.962;2022-09-02T07:26:52;101823.31;;;22.50;51.45
13011;BME280;6786;57.632;11.962;2022-09-02T07:29:21;101833.25;;;22.49;51.66
13011;BME280;6786;57.632;11.962;2022-09-02T07:31:49;101831.41;;;22.50;51.29
13011;BME280;6786;57.632;11.962;2022-09-02T07:34:18;101830.44;;;22.51;51.71
13011;BME280;6786;57.632;11.962;2022-09-02T07:36:47;101823.81;;;22.44;51.60
13011;BME280;6786;57.632;11.962;2022-09-02T07:39:17;101800.16;;;22.27;51.54
13011;BME280;6786;57.632;11.962;2022-09-02T07:41:49;101832.38;;;22.49;51.35
13011;BME280;6786;57.632;11.962;2022-09-02T07:44:19;101827.25;;;22.46;51.28
13011;BME280;6786;57.632;11.962;2022-09-02T07:46:47;101836.06;;;22.48;51.50
13011;BME280;6786;57.632;11.962;2022-09-02T07:49:16;101839.03;;;22.45;51.61
13011;BME280;6786;57.632;11.962;2022-09-02T07:51:50;101840.59;;;22.47;51.71
13011;BME280;6786;57.632;11.962;2022-09-02T07:54:20;101832.44;;;22.38;51.87
13011;BME280;6786;57.632;11.962;2022-09-02T07:56:51;101851.50;;;22.46;51.44
13011;BME280;6786;57.632;11.962;2022-09-02T07:59:19;101841.44;;;22.48;51.63
13011;BME280;6786;57.632;11.962;2022-09-02T08:01:48;101844.41;;;22.45;51.76
13011;BME280;6786;57.632;11.962;2022-09-02T08:04:17;101841.97;;;22.42;51.26
13011;BME280;6786;57.632;11.962;2022-09-02T08:06:46;101848.06;;;22.44;51.53
13011;BME280;6786;57.632;11.962;2022-09-02T08:09:14;101840.84;;;22.44;51.50
13011;BME280;6786;57.632;11.962;2022-09-02T08:11:44;101847.34;;;22.42;51.73
13011;BME280;6786;57.632;11.962;2022-09-02T08:14:17;101856.16;;;22.44;51.47
13011;BME280;6786;57.632;11.962;2022-09-02T08:16:47;101843.41;;;22.46;51.66
13011;BME280;6786;57.632;11.962;2022-09-02T08:19:15;101849.66;;;22.46;51.73
13011;BME280;6786;57.632;11.962;2022-09-02T08:21:43;101850.50;;;22.47;51.42
13011;BME280;6786;57.632;11.962;2022-09-02T08:24:12;101846.84;;;22.48;51.75
13011;BME280;6786;57.632;11.962;2022-09-02T08:26:40;101838.88;;;22.46;51.44
13011;BME280;6786;57.632;11.962;2022-09-02T08:29:08;101848.78;;;22.46;51.46
13011;BME280;6786;57.632;11.962;2022-09-02T08:31:38;101842.28;;;22.48;51.59
13011;BME280;6786;57.632;11.962;2022-09-02T08:34:06;101844.88;;;22.50;51.52
13011;BME280;6786;57.632;11.962;2022-09-02T08:36:35;101846.84;;;22.48;51.84
13011;BME280;6786;57.632;11.962;2022-09-02T08:39:10;101840.44;;;22.49;51.74
13011;BME280;6786;57.632;11.962;2022-09-02T08:41:44;101833.25;;;22.49;51.46
13011;BME280;6786;57.632;11.962;2022-09-02T08:44:21;101842.19;;;22.50;51.69
13011;BME280;6786;57.632;11.962;2022-09-02T08:46:55;101853.94;;;22.49;51.82
13011;BME280;6786;57.632;11.962;2022-09-02T08:49:29;101844.88;;;22.50;51.80
13011;BME280;6786;57.632;11.962;2022-09-02T08:52:02;101850.00;;;22.53;51.50
13011;BME280;6786;57.632;11.962;2022-09-02T08:54:35;101847.44;;;22.51;51.85
13011;BME280;6786;57.632;11.962;2022-09-02T08:57:07;101839.50;;;22.50;51.62
13011;BME280;6786;57.632;11.962;2022-09-02T08:59:37;101841.22;;;22.51;51.79
13011;BME280;6786;57.632;11.962;2022-09-02T09:02:18;101839.72;;;22.47;51.75
13011;BME280;6786;57.632;11.962;2022-09-02T09:05:08;101844.88;;;22.50;51.23
13011;BME280;6786;57.632;11.962;2022-09-02T09:07:52;101844.00;;;22.49;51.35
13011;BME280;6786;57.632;11.962;2022-09-02T09:10:34;101839.50;;;22.50;51.47
13011;BME280;6786;57.632;11.962;2022-09-02T09:13:17;101841.22;;;22.51;51.64
13011;BME280;6786;57.632;11.962;2022-09-02T09:15:53;101842.91;;;22.52;51.82
13011;BME280;6786;57.632;11.962;2022-09-02T09:18:32;101837.53;;;22.52;51.60
13011;BME280;6786;57.632;11.962;2022-09-02T09:21:04;101830.19;;;22.54;51.69
13011;BME280;6786;57.632;11.962;2022-09-02T09:23:38;101835.56;;;22.54;51.89
13011;BME280;6786;57.632;11.962;2022-09-02T09:26:09;101836.28;;;22.56;51.44
13011;BME280;6786;57.632;11.962;2022-09-02T09:28:38;101843.41;;;22.57;51.66
13011;BME280;6786;57.632;11.962;2022-09-02T09:31:12;101843.53;;;22.55;51.63
13011;BME280;6786;57.632;11.962;2022-09-02T09:33:56;101838.28;;;22.54;51.10
13011;BME280;6786;57.632;11.962;2022-09-02T09:36:57;101839.50;;;22.50;51.23
13011;BME280;6786;57.632;11.962;2022-09-02T09:39:27;101838.88;;;22.46;51.53
13011;BME280;6786;57.632;11.962;2022-09-02T09:41:57;101836.06;;;22.48;51.71
13011;BME280;6786;57.632;11.962;2022-09-02T09:44:38;101837.75;;;22.49;51.35
13011;BME280;6786;57.632;11.962;2022-09-02T09:47:11;101841.44;;;22.48;51.27
13011;BME280;6786;57.632;11.962;2022-09-02T09:49:46;101829.19;;;22.44;51.55
13011;BME280;6786;57.632;11.962;2022-09-02T09:52:25;101832.63;;;22.46;51.54
13011;BME280;6786;57.632;11.962;2022-09-02T09:55:20;101838.88;;;22.46;51.04
13011;BME280;6786;57.632;11.962;2022-09-02T09:57:51;101830.06;;;22.44;51.17
13011;BME280;6786;57.632;11.962;2022-09-02T10:00:25;101833.63;;;22.45;51.57
13011;BME280;6786;57.632;11.962;2022-09-02T10:02:57;101826.50;;;22.44;51.27
13011;BME280;6786;57.632;11.962;2022-09-02T10:05:31;101829.19;;;22.44;51.20
13011;BME280;6786;57.632;11.962;2022-09-02T10:08:00;101831.19;;;22.42;51.20
13011;BME280;6786;57.632;11.962;2022-09-02T10:10:36;101832.91;;;22.43;51.24
13011;BME280;6786;57.632;11.962;2022-09-02T10:13:19;101839.97;;;22.44;51.26
13011;BME280;6786;57.632;11.962;2022-09-02T10:15:59;101824.81;;;22.43;51.30
13011;BME280;6786;57.632;11.962;2022-09-02T10:18:36;101828.38;;;22.43;51.47
13011;BME280;6786;57.632;11.962;2022-09-02T10:21:17;101831.19;;;22.42;51.21
13011;BME280;6786;57.632;11.962;2022-09-02T10:23:57;101831.19;;;22.42;51.47
13011;BME280;6786;57.632;11.962;2022-09-02T10:26:35;101826.75;;;22.41;51.19
13011;BME280;6786;57.632;11.962;2022-09-02T10:29:31;101827.75;;;22.40;51.05
13011;BME280;6786;57.632;11.962;2022-09-02T10:32:18;101827.75;;;22.40;51.42
13011;BME280;6786;57.632;11.962;2022-09-02T10:34:56;101826.06;;;22.39;51.25
13011;BME280;6786;57.632;11.962;2022-09-02T10:37:38;101817.25;;;22.37;51.63
13011;BME280;6786;57.632;11.962;2022-09-02T10:40:12;101817.25;;;22.37;51.41
13011;BME280;6786;57.632;11.962;2022-09-02T10:42:53;101818.97;;;22.38;51.54
13011;BME280;6786;57.632;11.962;2022-09-02T10:45:30;101818.97;;;22.38;51.82
13011;BME280;6786;57.632;11.962;2022-09-02T10:48:14;101817.00;;;22.40;52.02
13011;BME280;6786;57.632;11.962;2022-09-02T10:50:50;101811.47;;;22.41;51.55
13011;BME280;6786;57.632;11.962;2022-09-02T10:53:32;101809.38;;;22.45;51.55
13011;BME280;6786;57.632;11.962;2022-09-02T10:56:05;101811.09;;;22.46;51.58
13011;BME280;6786;57.632;11.962;2022-09-02T10:58:39;101802.25;;;22.44;51.86
13011;BME280;6786;57.632;11.962;2022-09-02T11:01:14;101803.00;;;22.46;51.84
13011;BME280;6786;57.632;11.962;2022-09-02T11:03:56;101807.38;;;22.47;51.84
13011;BME280;6786;57.632;11.962;2022-09-02T11:06:28;101804.69;;;22.47;52.11
13011;BME280;6786;57.632;11.962;2022-09-02T11:09:26;101796.75;;;22.45;52.07
13011;BME280;6786;57.632;11.962;2022-09-02T11:11:58;101802.88;;;22.47;52.11
13011;BME280;6786;57.632;11.962;2022-09-02T11:14:31;101800.03;;;22.49;52.13
13011;BME280;6786;57.632;11.962;2022-09-02T11:17:06;101803.50;;;22.51;52.24
13011;BME280;6786;57.632;11.962;2022-09-02T11:19:41;101796.13;;;22.53;52.42
13011;BME280;6786;57.632;11.962;2022-09-02T11:22:18;101802.38;;;22.53;52.17
13011;BME280;6786;57.632;11.962;2022-09-02T11:24:57;101797.84;;;22.54;52.51
13011;BME280;6786;57.632;11.962;2022-09-02T11:27:31;101795.16;;;22.54;52.42
13011;BME280;6786;57.632;11.962;2022-09-02T11:30:12;101795.84;;;22.56;52.15
13011;BME280;6786;57.632;11.962;2022-09-02T11:32:45;101801.25;;;22.56;52.30
13011;BME280;6786;57.632;11.962;2022-09-02T11:35:20;101795.84;;;22.56;52.55
13011;BME280;6786;57.632;11.962;2022-09-02T11:37:57;101795.03;;;22.55;52.33
13011;BME280;6786;57.632;11.962;2022-09-02T11:40:31;101795.84;;;22.56;52.22
13011;BME280;6786;57.632;11.962;2022-09-02T11:43:22;101788.63;;;22.56;52.45
13011;BME280;6786;57.632;11.962;2022-09-02T11:52:17;101785.06;;;22.56;52.42
13011;BME280;6786;57.632;11.962;2022-09-02T11:55:03;101776.03;;;22.57;52.07
13011;BME280;6786;57.632;11.962;2022-09-02T11:57:35;101793.03;;;22.57;52.15
13011;BME280;6786;57.632;11.962;2022-09-02T12:00:29;101783.13;;;22.58;52.31
13011;BME280;6786;57.632;11.962;2022-09-02T12:03:13;101781.69;;;22.54;52.29
13011;BME280;6786;57.632;11.962;2022-09-02T12:06:07;101781.94;;;22.51;52.20
13011;BME280;6786;57.632;11.962;2022-09-02T12:09:00;101778.25;;;22.52;52.71
13011;BME280;6786;57.632;11.962;2022-09-02T12:11:36;101773.59;;;22.54;52.40
13011;BME280;6786;57.632;11.962;2022-09-02T12:14:10;101772.59;;;22.55;52.63
13011;BME280;6786;57.632;11.962;2022-09-02T12:17:00;101774.56;;;22.53;52.42
13011;BME280;6786;57.632;11.962;2022-09-02T12:19:40;101771.03;;;22.52;52.29
13011;BME280;6786;57.632;11.962;2022-09-02T12:22:39;101767.09;;;22.56;52.69
13011;BME280;6786;57.632;11.962;2022-09-02T12:25:33;101765.25;;;22.57;52.63
13011;BME280;6786;57.632;11.962;2022-09-02T12:28:24;101765.50;;;22.54;52.43
13011;BME280;6786;57.632;11.962;2022-09-02T12:31:15;101763.53;;;22.56;52.47
13011;BME280;6786;57.632;11.962;2022-09-02T12:33:48;101758.13;;;22.56;52.47
13011;BME280;6786;57.632;11.962;2022-09-02T12:36:48;101751.78;;;22.57;52.74
13011;BME280;6786;57.632;11.962;2022-09-02T12:39:52;101759.88;;;22.57;52.41
13011;BME280;6786;57.632;11.962;2022-09-02T12:42:25;101754.47;;;22.57;52.65
13011;BME280;6786;57.632;11.962;2022-09-02T12:45:04;101759.88;;;22.57;52.42
13011;BME280;6786;57.632;11.962;2022-09-02T12:47:46;101759.88;;;22.57;52.36
13011;BME280;6786;57.632;11.962;2022-09-02T12:50:22;101737.09;;;22.50;52.48
13011;BME280;6786;57.632;11.962;2022-09-02T12:53:17;101764.97;;;22.60;52.84
13011;BME280;6786;57.632;11.962;2022-09-02T12:55:53;101759.59;;;22.60;52.57
13011;BME280;6786;57.632;11.962;2022-09-02T12:58:22;101759.59;;;22.60;52.75
13011;BME280;6786;57.632;11.962;2022-09-02T13:01:01;101754.22;;;22.60;52.78
13011;BME280;6786;57.632;11.962;2022-09-02T13:06:49;101757.59;;;22.62;52.58
13011;BME280;6786;57.632;11.962;2022-09-02T13:09:40;101747.09;;;22.59;52.43
13011;BME280;6786;57.632;11.962;2022-09-02T13:12:47;101750.50;;;22.61;52.54
13011;BME280;6786;57.632;11.962;2022-09-02T13:15:29;101743.44;;;22.60;52.49
13011;BME280;6786;57.632;11.962;2022-09-02T13:18:35;101747.81;;;22.61;52.86
13011;BME280;6786;57.632;11.962;2022-09-02T13:21:20;101740.59;;;22.61;52.46
13011;BME280;6786;57.632;11.962;2022-09-02T13:27:34;101737.78;;;22.63;52.84
13011;BME280;6786;57.632;11.962;2022-09-02T13:30:12;101746.81;;;22.62;52.80
13011;BME280;6786;57.632;11.962;2022-09-02T13:32:42;101734.34;;;22.61;52.84